Time;durP1;ratioP1;P1;durP2;ratioP2;P2;SDS_P1;SDS_P2;PMS_P1;PMS_P2;Temp;Humidity;BMP_temperature;BMP_pressure;BME280_temperature;BME280_humidity;BME280_pressure;Samples;Min_cycle;Max_cycle;Signal;HPM_P1;HPM_P2
2023/06/12 00:01:36;;;;;;;6.27;4.30;;;;;;;17.33;57.29;98384.69;4978071;28;20220;-62
2023/06/12 00:04:04;;;;;;;6.17;4.60;;;;;;;17.24;57.79;98386.69;4972481;28;20320;-62
2023/06/12 00:06:31;;;;;;;5.33;4.47;;;;;;;17.16;57.99;98392.13;4955685;28;20238;-62
2023/06/12 00:08:58;;;;;;;4.90;4.40;;;;;;;17.11;57.59;98391.94;4971647;28;20225;-62
2023/06/12 00:11:25;;;;;;;6.20;4.97;;;;;;;17.04;57.85;98393.72;4972647;28;20227;-62
2023/06/12 00:13:52;;;;;;;5.23;4.73;;;;;;;16.91;58.50;98389.22;4970854;28;20314;-62
2023/06/12 00:16:20;;;;;;;8.53;5.50;;;;;;;16.86;58.37;98389.00;4977020;28;20240;-62
2023/06/12 00:18:46;;;;;;;6.17;5.07;;;;;;;16.79;58.71;98384.50;4973859;28;20684;-62
2023/06/12 00:21:13;;;;;;;6.00;4.57;;;;;;;16.77;58.93;98389.16;4971552;28;20369;-62
2023/06/12 00:23:41;;;;;;;6.67;4.83;;;;;;;16.64;59.14;98389.09;4974779;28;20228;-62
2023/06/12 00:26:08;;;;;;;6.50;5.20;;;;;;;16.61;60.72;98398.22;4972216;28;20330;-62
2023/06/12 00:28:35;;;;;;;6.67;4.97;;;;;;;16.53;59.86;98396.53;4973529;28;20229;-62
2023/06/12 00:31:02;;;;;;;8.23;5.30;;;;;;;16.50;59.70;98388.22;4954325;28;20324;-62
2023/06/12 00:33:30;;;;;;;5.97;4.70;;;;;;;16.51;59.56;98381.97;4958799;28;20225;-62
2023/06/12 00:35:56;;;;;;;7.63;4.80;;;;;;;16.45;60.33;98388.00;4954789;28;20273;-62
2023/06/12 00:38:23;;;;;;;5.03;4.43;;;;;;;16.42;59.69;98386.59;4954973;28;20718;-62
2023/06/12 00:40:50;;;;;;;6.17;4.77;;;;;;;16.36;60.50;98393.44;4956681;28;20232;-62
2023/06/12 00:43:17;;;;;;;5.70;5.10;;;;;;;16.31;60.97;98390.56;4961039;28;20224;-62
2023/06/12 00:45:44;;;;;;;7.83;5.23;;;;;;;16.32;60.94;98392.19;4976998;28;20311;-62
2023/06/12 00:48:11;;;;;;;5.00;4.43;;;;;;;16.29;60.99;98389.94;4956669;28;20631;-62
2023/06/12 00:50:41;;;;;;;6.67;4.80;;;;;;;16.21;61.07;98390.09;4959116;28;20222;-62
2023/06/12 00:53:08;;;;;;;6.13;5.00;;;;;;;16.20;60.96;98381.41;4972107;28;20317;-62
2023/06/12 00:55:35;;;;;;;7.90;5.23;;;;;;;16.22;61.44;98379.38;4973771;28;20227;-62
2023/06/12 00:58:03;;;;;;;7.93;4.97;;;;;;;16.16;61.12;98385.41;4972889;28;20234;-62
2023/06/12 01:00:30;;;;;;;5.77;5.10;;;;;;;16.17;60.11;98383.59;4957784;28;20278;-62
2023/06/12 01:03:04;;;;;;;8.57;5.40;;;;;;;16.23;60.41;98378.38;4955620;28;20232;-62
2023/06/12 01:05:33;;;;;;;6.07;5.10;;;;;;;16.24;59.93;98379.16;4975327;28;20606;-62
2023/06/12 01:08:27;;;;;;;7.90;5.27;;;;;;;16.26;60.54;98385.06;4950309;28;20679;-62
2023/06/12 01:10:58;;;;;;;7.97;4.93;;;;;;;16.20;60.30;98381.41;4949286;28;20222;-62
2023/06/12 01:13:26;;;;;;;6.43;5.27;;;;;;;16.20;60.39;98386.66;4959852;28;20251;-62
2023/06/12 01:15:52;;;;;;;5.63;5.00;;;;;;;16.31;60.43;98385.28;4952905;28;20361;-62
2023/06/12 01:18:21;;;;;;;7.27;4.90;;;;;;;16.33;60.99;98396.44;4957139;28;20237;-62
2023/06/12 01:20:48;;;;;;;8.27;5.40;;;;;;;16.28;60.55;98390.94;4961958;28;20334;-62
2023/06/12 01:23:32;;;;;;;5.70;5.10;;;;;;;16.31;60.52;98385.28;4952122;28;20228;-62
2023/06/12 01:26:18;;;;;;;6.13;5.13;;;;;;;16.23;60.95;98394.19;4954534;28;20868;-62
2023/06/12 01:29:10;;;;;;;6.20;5.07;;;;;;;16.17;61.13;98394.94;4955071;28;20302;-62
2023/06/12 01:31:44;;;;;;;7.67;5.17;;;;;;;16.22;61.03;98389.09;4953658;28;20701;-62
2023/06/12 01:34:20;;;;;;;5.57;4.67;;;;;;;16.15;61.90;98388.22;4952910;28;20240;-62
2023/06/12 01:36:54;;;;;;;5.47;4.97;;;;;;;16.12;61.39;98388.63;4956086;28;20237;-61
2023/06/12 01:39:26;;;;;;;5.70;5.00;;;;;;;16.17;62.19;98392.31;4955212;28;20239;-62
2023/06/12 01:41:54;;;;;;;5.30;4.80;;;;;;;16.04;62.73;98379.06;4951636;28;20750;-62
2023/06/12 01:44:21;;;;;;;5.30;4.80;;;;;;;16.06;62.36;98382.31;4955912;28;20223;-61
2023/06/12 01:46:48;;;;;;;6.90;5.17;;;;;;;16.01;62.42;98379.44;4976374;28;20226;-61
2023/06/12 01:49:40;;;;;;;5.33;4.57;;;;;;;16.00;63.35;98383.06;4971652;28;20230;-61
2023/06/12 01:52:07;;;;;;;6.80;5.07;;;;;;;16.03;62.63;98375.59;4955113;28;20233;-61
2023/06/12 01:54:35;;;;;;;7.30;5.20;;;;;;;16.01;62.91;98382.88;4954645;28;20248;-61
2023/06/12 01:57:02;;;;;;;7.40;4.37;;;;;;;15.97;62.87;98378.19;4948369;28;20223;-62
2023/06/12 01:59:34;;;;;;;5.57;4.70;;;;;;;15.93;63.31;98368.03;4955830;28;20234;-60
2023/06/12 02:02:00;;;;;;;8.80;5.13;;;;;;;15.98;63.26;98366.66;4954294;28;20232;-61
2023/06/12 02:04:28;;;;;;;6.67;5.60;;;;;;;16.05;62.73;98373.59;4952514;28;20220;-61
2023/06/12 02:06:59;;;;;;;7.70;5.13;;;;;;;16.11;62.31;98369.38;4953396;28;20246;-61
2023/06/12 02:09:28;;;;;;;9.67;5.57;;;;;;;16.13;62.10;98377.06;4971198;28;20702;-61
2023/06/12 02:11:55;;;;;;;5.23;4.73;;;;;;;16.13;62.60;98379.72;4954114;28;20257;-61
2023/06/12 02:14:23;;;;;;;6.07;5.23;;;;;;;16.18;62.39;98379.94;4956504;28;20225;-61
2023/06/12 02:16:53;;;;;;;7.93;4.97;;;;;;;16.35;61.15;98381.25;4954089;28;20232;-61
2023/06/12 02:19:25;;;;;;;7.93;4.90;;;;;;;16.61;59.75;98379.78;4969996;28;20729;-61
2023/06/12 02:21:53;;;;;;;5.77;5.07;;;;;;;16.82;58.66;98380.69;4956300;28;20239;-62
2023/06/12 02:24:26;;;;;;;5.43;4.60;;;;;;;16.94;58.54;98380.91;4956017;28;20255;-62
2023/06/12 02:26:53;;;;;;;7.10;5.27;;;;;;;17.01;58.16;98391.50;4952065;28;20603;-61
2023/06/12 02:29:22;;;;;;;7.93;5.00;;;;;;;17.03;58.37;98400.84;4954936;28;20220;-61
2023/06/12 02:31:53;;;;;;;7.60;5.40;;;;;;;17.13;57.28;98397.00;4951145;28;20240;-61
2023/06/12 02:34:22;;;;;;;6.53;5.10;;;;;;;17.18;57.53;98400.66;4952078;28;20232;-61
2023/06/12 02:36:49;;;;;;;7.50;4.80;;;;;;;17.22;56.94;98407.16;4970180;28;20232;-61
2023/06/12 02:39:26;;;;;;;6.50;5.43;;;;;;;17.30;57.25;98395.63;4958232;28;20568;-61
2023/06/12 02:41:53;;;;;;;7.03;5.20;;;;;;;17.16;58.17;98401.91;4952989;28;20761;-61
2023/06/12 02:44:22;;;;;;;5.63;5.00;;;;;;;17.15;58.33;98400.28;4972496;28;20565;-62
2023/06/12 02:46:52;;;;;;;6.50;5.00;;;;;;;17.16;58.35;98405.31;4951726;28;20323;-62
2023/06/12 02:49:26;;;;;;;6.03;5.40;;;;;;;17.13;57.86;98410.19;4954600;28;20219;-61
2023/06/12 02:51:53;;;;;;;7.30;4.60;;;;;;;17.19;57.63;98406.78;4949498;28;20224;-61
2023/06/12 02:54:23;;;;;;;5.53;4.97;;;;;;;17.19;57.96;98404.94;4954404;28;20287;-61
2023/06/12 02:56:52;;;;;;;8.67;4.83;;;;;;;17.15;57.97;98403.69;4967379;28;20223;-62
2023/06/12 02:59:23;;;;;;;5.47;4.97;;;;;;;17.14;57.79;98410.00;4971517;28;20720;-62
2023/06/12 03:04:35;;;;;;;7.37;4.90;;;;;;;17.06;59.39;98402.25;5353584;23;20577;-62
2023/06/12 03:07:05;;;;;;;6.00;5.40;;;;;;;17.11;58.86;98405.09;4999940;28;20330;-62
2023/06/12 03:09:34;;;;;;;5.90;4.93;;;;;;;17.08;58.76;98410.78;5006472;28;20254;-61
2023/06/12 03:12:02;;;;;;;6.67;5.53;;;;;;;17.07;59.60;98404.72;4987301;28;20289;-61
2023/06/12 03:14:30;;;;;;;5.57;4.97;;;;;;;17.09;59.38;98410.59;4988810;28;20314;-61
2023/06/12 03:16:57;;;;;;;6.53;5.10;;;;;;;17.09;59.44;98404.50;4998713;28;20692;-61
2023/06/12 03:19:23;;;;;;;8.30;4.63;;;;;;;17.15;58.46;98406.34;4999996;28;20240;-61
2023/06/12 03:21:50;;;;;;;6.00;5.17;;;;;;;17.16;58.78;98407.97;4985417;28;20776;-61
2023/06/12 03:24:24;;;;;;;9.43;5.53;;;;;;;17.16;58.94;98407.97;4988289;28;20329;-61
2023/06/12 03:26:50;;;;;;;5.72;5.10;;;;;;;17.16;59.33;98405.31;4985817;28;20458;-61
2023/06/12 03:29:22;;;;;;;7.00;5.67;;;;;;;17.09;60.10;98402.69;4989272;28;20289;-61
2023/06/12 03:31:53;;;;;;;5.53;4.93;;;;;;;17.05;60.33;98404.09;5164373;23;20225;-62
2023/06/12 03:34:22;;;;;;;5.67;5.00;;;;;;;17.06;60.29;98415.44;4959183;28;20232;-62
2023/06/12 03:36:49;;;;;;;5.30;4.80;;;;;;;17.15;60.43;98413.47;4973790;28;20235;-62
2023/06/12 03:39:26;;;;;;;6.57;5.10;;;;;;;17.16;59.69;98421.16;4977283;28;20243;-62
2023/06/12 03:41:55;;;;;;;5.63;4.67;;;;;;;17.19;59.66;98418.13;4973267;28;20243;-62
2023/06/12 03:44:25;;;;;;;6.33;4.80;;;;;;;17.26;60.15;98418.94;4978486;28;20754;-62
2023/06/12 03:46:52;;;;;;;5.43;4.93;;;;;;;17.33;59.81;98418.16;4973750;28;20307;-61
2023/06/12 03:49:23;;;;;;;8.00;4.80;;;;;;;17.28;60.68;98424.03;4992952;28;20707;-62
2023/06/12 03:51:50;;;;;;;5.73;5.07;;;;;;;17.27;60.33;98419.78;4973702;28;20236;-62
2023/06/12 03:54:22;;;;;;;6.53;4.70;;;;;;;17.38;59.77;98419.19;4995009;28;20233;-62
2023/06/12 03:56:49;;;;;;;6.43;4.80;;;;;;;17.46;59.48;98420.03;4990295;28;20243;-62
2023/06/12 03:59:21;;;;;;;6.50;5.73;;;;;;;17.50;59.44;98426.50;4994071;28;20333;-61
2023/06/12 04:01:51;;;;;;;5.73;5.17;;;;;;;17.59;58.86;98427.13;4977385;28;20708;-62
2023/06/12 04:04:21;;;;;;;7.77;4.83;;;;;;;17.62;59.04;98435.44;4990362;28;20600;-62
2023/06/12 04:06:48;;;;;;;7.07;5.53;;;;;;;17.73;58.07;98431.41;4976952;28;20228;-62
2023/06/12 04:09:19;;;;;;;7.07;4.87;;;;;;;17.73;58.46;98433.22;4974530;28;20234;-62
2023/06/12 04:11:47;;;;;;;6.63;5.40;;;;;;;17.80;57.96;98437.50;4976673;28;20290;-62
2023/06/12 04:14:14;;;;;;;5.80;5.20;;;;;;;17.84;57.93;98436.09;4971896;28;20251;-62
2023/06/12 04:16:40;;;;;;;5.20;4.70;;;;;;;17.85;58.36;98437.72;4994343;28;20234;-62
2023/06/12 04:19:08;;;;;;;6.03;5.00;;;;;;;17.81;58.07;98441.78;4974384;28;20230;-62
2023/06/12 04:21:36;;;;;;;5.73;5.10;;;;;;;17.79;58.42;98438.53;4974587;28;20225;-61
2023/06/12 04:24:13;;;;;;;5.47;4.97;;;;;;;17.74;60.09;98448.88;4973571;28;20273;-61
2023/06/12 04:26:43;;;;;;;6.33;4.70;;;;;;;17.66;60.49;98449.88;4977157;28;20233;-61
2023/06/12 04:29:12;;;;;;;7.60;5.27;;;;;;;17.59;61.52;98445.59;4974603;28;20235;-61
2023/06/12 04:31:39;;;;;;;10.23;5.40;;;;;;;17.50;62.24;98450.25;4976850;28;20326;-62
2023/06/12 04:34:07;;;;;;;7.00;5.43;;;;;;;17.43;62.82;98457.38;4974406;28;20219;-62
2023/06/12 04:36:37;;;;;;;5.73;5.00;;;;;;;17.35;62.74;98460.97;4976572;28;20237;-62
2023/06/12 04:39:05;;;;;;;5.60;5.10;;;;;;;17.32;63.94;98456.94;4973007;28;20225;-62
2023/06/12 04:41:36;;;;;;;7.40;5.00;;;;;;;17.28;63.71;98453.06;4975946;28;20315;-62
2023/06/12 04:44:03;;;;;;;5.90;5.30;;;;;;;17.24;64.47;98449.19;4973430;28;20320;-62
2023/06/12 04:46:33;;;;;;;5.77;5.17;;;;;;;17.25;65.43;98454.25;4977224;28;20723;-62
2023/06/12 04:49:02;;;;;;;6.10;5.20;;;;;;;17.12;66.61;98459.47;4993657;28;20227;-62
2023/06/12 04:51:30;;;;;;;5.60;5.10;;;;;;;17.06;66.43;98455.81;4976707;28;20244;-62
2023/06/12 04:53:57;;;;;;;6.93;5.87;;;;;;;17.00;66.55;98447.88;4970269;28;20321;-62
2023/06/12 04:56:24;;;;;;;6.20;5.60;;;;;;;16.92;68.04;98444.38;4977927;28;20237;-62
2023/06/12 04:58:51;;;;;;;8.37;6.50;;;;;;;16.91;67.59;98448.03;4972543;28;20234;-62
2023/06/12 05:01:21;;;;;;;6.73;6.10;;;;;;;16.86;68.94;98444.34;4975411;28;20235;-62
2023/06/12 05:03:49;;;;;;;6.00;5.40;;;;;;;16.86;68.94;98449.63;4976609;28;20228;-62
2023/06/12 05:06:16;;;;;;;6.93;5.90;;;;;;;16.80;69.64;98441.47;4971945;28;20243;-62
2023/06/12 05:08:46;;;;;;;8.13;6.40;;;;;;;16.74;70.73;98444.09;4976731;28;20232;-62
2023/06/12 05:11:12;;;;;;;9.60;6.80;;;;;;;16.70;70.13;98442.88;4970091;28;20238;-62
2023/06/12 05:13:39;;;;;;;7.23;6.17;;;;;;;16.71;70.24;98450.56;4975235;28;20231;-61
2023/06/12 05:16:08;;;;;;;6.70;6.07;;;;;;;16.60;71.79;98449.28;4989758;28;20232;-61
2023/06/12 05:18:35;;;;;;;9.27;6.20;;;;;;;16.61;70.93;98443.03;4975268;28;20286;-61
2023/06/12 05:21:03;;;;;;;8.70;6.00;;;;;;;16.58;71.94;98450.47;4970618;28;20242;-61
2023/06/12 05:23:32;;;;;;;7.10;6.13;;;;;;;16.62;71.09;98443.81;4971995;28;20285;-61
2023/06/12 05:26:00;;;;;;;6.40;5.80;;;;;;;16.64;72.06;98449.72;4972885;28;20228;-61
2023/06/12 05:28:27;;;;;;;8.60;5.60;;;;;;;16.72;71.88;98449.56;4979268;28;20827;-61
2023/06/12 05:30:53;;;;;;;6.87;5.83;;;;;;;16.74;71.42;98452.00;4973326;28;20232;-61
2023/06/12 05:33:21;;;;;;;8.93;5.83;;;;;;;16.79;70.82;98450.41;4976174;28;20287;-61
2023/06/12 05:35:49;;;;;;;9.00;5.73;;;;;;;16.88;70.53;98452.88;4977599;28;20305;-61
2023/06/12 05:38:16;;;;;;;6.53;5.90;;;;;;;17.01;69.46;98446.84;4971776;28;20231;-62
2023/06/12 05:40:42;;;;;;;9.53;5.77;;;;;;;17.38;69.20;98458.78;4991079;28;20259;-62
2023/06/12 05:43:11;;;;;;;11.27;6.67;;;;;;;17.83;67.42;98454.75;4974866;28;20247;-62
2023/06/12 05:45:38;;;;;;;6.90;6.10;;;;;;;18.13;65.84;98462.31;4975503;28;20237;-62
2023/06/12 05:48:05;;;;;;;9.87;7.27;;;;;;;18.25;65.04;98458.06;4971560;28;20250;-62
2023/06/12 05:50:32;;;;;;;8.43;7.23;;;;;;;18.47;65.15;98460.47;4990783;28;20236;-62
2023/06/12 05:52:58;;;;;;;11.37;7.37;;;;;;;18.56;63.16;98459.19;4969325;28;20702;-62
2023/06/12 05:55:25;;;;;;;8.60;7.27;;;;;;;18.65;63.25;98462.44;4974680;28;20237;-62
2023/06/12 05:57:52;;;;;;;8.17;7.30;;;;;;;18.78;63.26;98458.94;4970357;28;20244;-62
2023/06/12 06:00:21;;;;;;;8.67;7.23;;;;;;;18.89;64.14;98465.44;4975534;28;20260;-62
2023/06/12 06:02:51;;;;;;;6.43;5.83;;;;;;;19.02;63.04;98457.47;4971191;28;20233;-62
2023/06/12 06:05:30;;;;;;;9.63;7.57;;;;;;;19.16;62.73;98457.41;4975482;28;20225;-62
2023/06/12 06:07:57;;;;;;;12.10;7.57;;;;;;;19.32;60.95;98459.56;4972550;28;20233;-62
2023/06/12 06:10:23;;;;;;;8.27;7.47;;;;;;;19.31;61.81;98454.50;4973506;28;20225;-62
2023/06/12 06:12:52;;;;;;;9.23;7.70;;;;;;;19.43;61.20;98459.91;4970405;28;20726;-62
2023/06/12 06:15:20;;;;;;;14.70;7.50;;;;;;;19.53;61.98;98462.09;4973431;28;20261;-61
2023/06/12 06:17:47;;;;;;;15.17;7.60;;;;;;;19.63;61.16;98475.66;4990830;28;20290;-59
2023/06/12 06:20:17;;;;;;;10.23;7.90;;;;;;;19.81;61.31;98474.13;4970223;28;20268;-60
2023/06/12 06:22:44;;;;;;;14.97;8.43;;;;;;;19.95;61.63;98475.69;4973484;28;20295;-60
2023/06/12 06:25:12;;;;;;;13.70;8.60;;;;;;;20.07;60.63;98483.75;4972650;28;20348;-63
2023/06/12 06:27:39;;;;;;;10.63;7.37;;;;;;;20.19;60.43;98487.28;4984583;28;20231;-62
2023/06/12 06:30:07;;;;;;;12.80;7.23;;;;;;;20.30;60.62;98492.91;4973622;28;20319;-59
2023/06/12 06:32:35;;;;;;;12.50;7.27;;;;;;;20.48;59.60;98495.59;4974288;28;20238;-63
2023/06/12 06:35:02;;;;;;;12.00;7.87;;;;;;;20.42;59.68;98495.69;4974624;28;20311;-60
2023/06/12 06:37:29;;;;;;;10.53;8.00;;;;;;;20.43;59.93;98498.09;4978566;28;20600;-57
2023/06/12 06:39:55;;;;;;;11.83;8.13;;;;;;;20.53;59.08;98499.44;4974506;28;20623;-62
2023/06/12 06:42:22;;;;;;;8.07;7.23;;;;;;;20.65;58.99;98500.34;4998215;28;21030;-63
2023/06/12 06:45:02;;;;;;;9.03;7.37;;;;;;;20.81;58.02;98495.53;4972968;28;20254;-58
2023/06/12 06:47:29;;;;;;;11.07;7.20;;;;;;;20.96;58.09;98505.75;4993293;28;20237;-67
2023/06/12 06:49:58;;;;;;;10.07;7.00;;;;;;;21.09;58.41;98506.44;4978066;28;20237;-61
2023/06/12 06:52:24;;;;;;;8.90;7.13;;;;;;;21.15;58.38;98502.06;4981008;28;20241;-64
2023/06/12 06:54:51;;;;;;;7.53;6.63;;;;;;;21.29;56.77;98494.75;4973559;28;20222;-62
2023/06/12 06:57:20;;;;;;;9.07;7.10;;;;;;;21.36;56.47;98502.63;4987854;28;20249;-62
2023/06/12 06:59:46;;;;;;;7.87;7.03;;;;;;;21.52;56.50;98509.16;4998015;28;20225;-61
2023/06/12 07:02:13;;;;;;;9.47;7.27;;;;;;;21.61;56.62;98505.16;4975164;28;20293;-61
2023/06/12 07:04:40;;;;;;;8.37;6.40;;;;;;;21.80;58.05;98499.81;4987836;28;20317;-63
2023/06/12 07:07:09;;;;;;;9.90;7.27;;;;;;;21.90;56.16;98494.75;4976813;28;20365;-61
2023/06/12 07:09:35;;;;;;;8.93;6.80;;;;;;;22.05;56.01;98491.63;4978700;28;20224;-61
2023/06/12 07:12:02;;;;;;;9.57;6.27;;;;;;;22.13;54.37;98493.16;4977628;28;20260;-61
2023/06/12 07:14:29;;;;;;;8.37;6.97;;;;;;;22.11;54.01;98488.06;4980132;28;20216;-61
2023/06/12 07:16:56;;;;;;;7.77;6.67;;;;;;;22.17;56.19;98489.00;4975813;28;21079;-61
2023/06/12 07:19:23;;;;;;;8.57;6.30;;;;;;;22.25;55.54;98490.50;4980576;28;20262;-61
2023/06/12 07:21:50;;;;;;;9.23;6.93;;;;;;;22.28;52.97;98495.38;4975019;28;20267;-62
2023/06/12 07:24:23;;;;;;;7.70;6.57;;;;;;;22.35;53.16;98498.72;4978791;28;20238;-62
2023/06/12 07:26:50;;;;;;;9.60;6.70;;;;;;;22.38;52.16;98502.75;4975332;28;20233;-60
2023/06/12 07:29:23;;;;;;;9.87;6.80;;;;;;;22.18;52.49;98495.13;4994450;28;20247;-59
2023/06/12 07:31:50;;;;;;;8.63;6.50;;;;;;;22.31;53.13;98500.22;4978501;28;20227;-61
2023/06/12 07:34:22;;;;;;;9.50;6.70;;;;;;;22.25;53.22;98499.31;4993984;28;20242;-62
2023/06/12 07:36:49;;;;;;;9.43;6.90;;;;;;;22.40;53.13;98498.00;4975507;28;20232;-66
2023/06/12 07:39:23;;;;;;;8.27;6.77;;;;;;;22.66;52.77;98498.63;4986322;28;20242;-53
2023/06/12 07:41:50;;;;;;;7.83;6.87;;;;;;;22.77;51.21;98499.66;4975796;28;21184;-64
2023/06/12 07:44:22;;;;;;;9.13;6.57;;;;;;;22.99;50.70;98494.50;4995084;28;20230;-60
2023/06/12 07:46:49;;;;;;;9.47;6.40;;;;;;;23.04;51.53;98491.97;4990592;28;20242;-59
2023/06/12 07:49:22;;;;;;;9.10;6.70;;;;;;;23.21;51.15;98485.88;4977166;28;20317;-61
2023/06/12 07:51:50;;;;;;;13.67;6.53;;;;;;;23.20;50.61;98484.28;4975243;28;20231;-60
2023/06/12 07:54:23;;;;;;;10.07;6.63;;;;;;;23.32;50.75;98479.72;4992902;28;20251;-61
2023/06/12 07:56:51;;;;;;;6.87;6.27;;;;;;;23.47;49.99;98486.38;4991409;28;20233;-62
2023/06/12 07:59:23;;;;;;;8.53;6.50;;;;;;;23.58;49.72;98480.19;4994654;28;20313;-66
2023/06/12 08:01:57;;;;;;;8.40;6.40;;;;;;;23.72;49.30;98481.50;4973889;28;20244;-61
2023/06/12 08:04:23;;;;;;;7.43;6.63;;;;;;;23.85;49.48;98482.25;4978385;28;20335;-62
2023/06/12 08:06:50;;;;;;;9.80;6.37;;;;;;;24.01;48.63;98475.31;4972987;28;20243;-62
2023/06/12 08:09:26;;;;;;;6.57;5.97;;;;;;;24.16;48.62;98475.56;4976421;28;20234;-62
2023/06/12 08:11:54;;;;;;;10.40;6.30;;;;;;;24.03;48.87;98468.72;4973769;28;20251;-61
2023/06/12 08:14:22;;;;;;;9.53;6.10;;;;;;;24.20;49.02;98473.22;4992102;28;20221;-60
2023/06/12 08:16:50;;;;;;;8.87;6.37;;;;;;;24.29;48.81;98471.75;4972380;28;20236;-61
2023/06/12 08:19:22;;;;;;;8.53;5.80;;;;;;;24.30;45.82;98473.38;4993928;28;20261;-60
2023/06/12 08:21:48;;;;;;;9.13;6.13;;;;;;;24.44;44.16;98475.66;4977068;28;20278;-62
2023/06/12 08:24:43;;;;;;;6.63;5.93;;;;;;;24.50;45.83;98466.69;4991625;28;20247;-60
2023/06/12 08:27:12;;;;;;;7.83;5.30;;;;;;;24.66;39.69;98469.56;4993660;28;20236;-61
2023/06/12 08:29:40;;;;;;;7.17;4.10;;;;;;;24.45;36.57;98466.63;4978779;28;20295;-63
2023/06/12 08:32:08;;;;;;;5.70;4.20;;;;;;;24.59;35.12;98470.53;4983556;28;20239;-63
2023/06/12 08:34:34;;;;;;;5.93;4.30;;;;;;;24.67;34.36;98464.00;4973293;28;20232;-60
2023/06/12 08:37:01;;;;;;;4.80;4.40;;;;;;;24.91;34.67;98464.56;4972685;28;20224;-63
2023/06/12 08:39:28;;;;;;;5.00;4.43;;;;;;;25.09;36.47;98464.50;4978008;28;20240;-62
2023/06/12 08:42:05;;;;;;;4.93;4.30;;;;;;;25.27;34.72;98466.03;4973606;28;20715;-63
2023/06/12 08:44:32;;;;;;;5.07;4.13;;;;;;;25.42;34.64;98465.38;4973352;28;20236;-63
2023/06/12 08:47:01;;;;;;;4.60;4.20;;;;;;;25.26;34.81;98459.88;4973602;28;20327;-63
2023/06/12 08:49:28;;;;;;;6.20;3.80;;;;;;;25.18;34.91;98453.13;4974226;28;20274;-63
2023/06/12 08:51:54;;;;;;;4.30;3.90;;;;;;;25.35;32.74;98449.56;4990476;28;20237;-63
2023/06/12 08:54:22;;;;;;;5.30;4.43;;;;;;;25.33;34.20;98459.69;4993420;28;20228;-62
2023/06/12 08:56:51;;;;;;;4.57;4.03;;;;;;;25.34;32.88;98454.09;4988461;28;20279;-63
2023/06/12 08:59:23;;;;;;;4.40;4.00;;;;;;;25.44;32.88;98452.56;4993450;28;20805;-63
2023/06/12 09:01:53;;;;;;;5.90;3.93;;;;;;;25.24;32.25;98447.84;4992038;28;20244;-62
2023/06/12 09:04:28;;;;;;;5.97;4.50;;;;;;;24.93;32.72;98450.16;4994130;28;20229;-60
2023/06/12 09:07:01;;;;;;;5.17;4.30;;;;;;;25.02;32.14;98452.13;4991766;28;20291;-60
2023/06/12 09:09:36;;;;;;;6.50;4.40;;;;;;;25.12;33.84;98438.09;4971109;28;20787;-61
2023/06/12 09:12:05;;;;;;;5.80;4.33;;;;;;;25.32;32.61;98444.72;4991317;28;20346;-58
2023/06/12 09:14:35;;;;;;;6.87;4.20;;;;;;;25.38;32.48;98446.38;4992616;28;20233;-61
2023/06/12 09:17:02;;;;;;;7.23;4.70;;;;;;;25.46;34.26;98443.25;4991875;28;20692;-60
2023/06/12 09:19:36;;;;;;;5.50;4.63;;;;;;;25.64;34.43;98438.59;4994930;28;20296;-60
2023/06/12 09:22:02;;;;;;;7.07;4.30;;;;;;;25.77;33.88;98440.84;4986160;28;20253;-62
2023/06/12 09:24:29;;;;;;;7.50;4.60;;;;;;;25.71;33.00;98433.84;4993240;28;20319;-61
2023/06/12 09:26:56;;;;;;;6.33;4.30;;;;;;;25.69;33.66;98440.53;4990696;28;20237;-60
2023/06/12 09:29:26;;;;;;;7.30;4.10;;;;;;;25.83;31.32;98430.19;4994749;28;20752;-59
2023/06/12 09:31:55;;;;;;;6.60;4.50;;;;;;;25.74;32.54;98430.66;4990012;28;20634;-61
2023/06/12 09:34:24;;;;;;;7.77;5.00;;;;;;;25.81;31.96;98426.97;4994349;28;20645;-56
2023/06/12 09:36:56;;;;;;;5.20;4.50;;;;;;;25.80;32.40;98426.19;4991595;28;20313;-61
2023/06/12 09:39:27;;;;;;;4.67;4.13;;;;;;;25.96;30.95;98432.44;4991334;28;20229;-61
2023/06/12 09:41:54;;;;;;;7.07;4.60;;;;;;;25.90;31.52;98430.78;4991851;28;20270;-62
2023/06/12 09:44:23;;;;;;;8.80;4.37;;;;;;;26.08;31.34;98434.91;4995165;28;20229;-62
2023/06/12 09:46:50;;;;;;;7.23;4.43;;;;;;;26.22;31.59;98438.78;4992729;28;20231;-61
2023/06/12 09:49:23;;;;;;;5.40;4.20;;;;;;;26.15;30.33;98442.75;4981412;28;20360;-61
2023/06/12 09:51:50;;;;;;;7.23;4.50;;;;;;;26.05;29.95;98448.81;4990866;28;20249;-60
2023/06/12 09:54:23;;;;;;;5.40;4.30;;;;;;;26.03;30.69;98429.53;4993174;28;20685;-61
2023/06/12 09:56:53;;;;;;;5.93;4.13;;;;;;;26.04;30.00;98431.97;4989698;28;20247;-62
2023/06/12 09:59:22;;;;;;;4.83;4.33;;;;;;;26.17;30.52;98433.41;4990494;28;20228;-62
2023/06/12 10:01:51;;;;;;;4.90;4.23;;;;;;;26.28;30.17;98422.75;4994292;28;20238;-62
2023/06/12 10:04:29;;;;;;;6.07;4.67;;;;;;;26.08;31.53;98424.22;4989103;28;20227;-62
2023/06/12 10:07:03;;;;;;;5.97;4.57;;;;;;;26.31;29.20;98428.41;4991470;28;20254;-61
2023/06/12 10:09:30;;;;;;;4.90;4.40;;;;;;;26.42;30.02;98425.78;4995234;28;20265;-62
2023/06/12 10:11:59;;;;;;;6.43;4.73;;;;;;;26.43;28.96;98432.75;4989198;28;20249;-62
2023/06/12 10:14:26;;;;;;;5.10;4.43;;;;;;;26.57;30.12;98436.56;4992049;28;20249;-60
2023/06/12 10:16:55;;;;;;;6.47;4.85;;;;;;;26.29;29.22;98432.41;4987521;28;20698;-62
2023/06/12 10:19:25;;;;;;;8.77;4.50;;;;;;;26.26;28.88;98428.38;4991525;28;20229;-63
2023/06/12 10:21:54;;;;;;;5.17;4.57;;;;;;;26.12;28.72;98424.53;4988778;28;20238;-63
2023/06/12 10:24:23;;;;;;;5.60;4.27;;;;;;;26.29;29.54;98411.00;4992449;28;20234;-62
2023/06/12 10:26:51;;;;;;;5.20;4.43;;;;;;;26.45;30.50;98420.72;4991132;28;20221;-62
2023/06/12 10:29:26;;;;;;;9.47;4.37;;;;;;;26.50;28.15;98407.34;4993368;28;20309;-60
2023/06/12 10:31:52;;;;;;;8.43;4.43;;;;;;;26.37;27.41;98397.13;4990573;28;20239;-61
2023/06/12 10:34:23;;;;;;;6.28;4.43;;;;;;;26.37;28.90;98402.47;4992933;28;20284;-61
2023/06/12 10:36:50;;;;;;;5.63;4.73;;;;;;;26.62;28.98;98414.38;4989610;28;20598;-60
2023/06/12 10:39:24;;;;;;;7.67;4.50;;;;;;;26.63;27.31;98406.06;4990622;28;20685;-62
2023/06/12 10:41:56;;;;;;;7.43;4.70;;;;;;;26.46;28.18;98400.13;4989982;28;20262;-61
2023/06/12 10:44:36;;;;;;;5.23;4.73;;;;;;;26.57;28.75;98398.28;4995210;28;20784;-61
2023/06/12 10:47:04;;;;;;;5.40;4.23;;;;;;;26.41;27.56;98400.09;4988163;28;20234;-61
2023/06/12 10:49:56;;;;;;;6.88;4.30;;;;;;;26.65;27.30;98393.22;4991290;28;20237;-59
2023/06/12 10:52:23;;;;;;;5.10;4.60;;;;;;;26.88;27.91;98398.44;4972610;28;20326;-60
2023/06/12 10:54:50;;;;;;;4.38;3.97;;;;;;;27.17;27.52;98403.28;4988370;28;20223;-57
2023/06/12 10:57:27;;;;;;;5.82;4.63;;;;;;;27.15;27.18;98405.44;4993935;28;20695;-62
2023/06/12 10:59:56;;;;;;;5.13;4.23;;;;;;;27.06;26.64;98392.53;4992814;28;20233;-60
2023/06/12 11:02:23;;;;;;;7.47;4.57;;;;;;;27.16;27.59;98394.47;4993255;28;20302;-56
2023/06/12 11:04:51;;;;;;;5.07;4.47;;;;;;;27.17;26.06;98389.88;4992437;28;20245;-61
2023/06/12 11:07:18;;;;;;;5.87;4.43;;;;;;;27.18;26.92;98388.81;4992134;28;20703;-61
2023/06/12 11:09:44;;;;;;;6.73;4.60;;;;;;;27.07;27.26;98378.09;4991210;28;20246;-64
2023/06/12 11:12:11;;;;;;;6.73;4.33;;;;;;;26.92;27.59;98380.75;4969164;28;20235;-63
2023/06/12 11:14:38;;;;;;;7.67;4.70;;;;;;;27.13;28.31;98378.91;4992322;28;20756;-61
2023/06/12 11:17:05;;;;;;;4.90;4.50;;;;;;;27.35;29.79;98369.81;4988880;28;20237;-62
2023/06/12 11:19:31;;;;;;;7.43;4.50;;;;;;;27.44;28.69;98373.59;4993170;28;20265;-59
2023/06/12 11:22:02;;;;;;;7.20;4.55;;;;;;;27.68;28.38;98378.41;4992633;28;20599;-62
2023/06/12 11:24:29;;;;;;;5.60;5.03;;;;;;;27.70;28.75;98373.56;4995883;28;20654;-60
2023/06/12 11:27:00;;;;;;;15.80;9.57;;;;;;;27.89;29.81;98373.84;4994572;28;20796;-63
2023/06/12 11:29:29;;;;;;;7.65;5.00;;;;;;;27.94;27.56;98368.47;4999434;28;20325;-61
2023/06/12 11:32:00;;;;;;;4.95;4.47;;;;;;;27.87;27.65;98361.75;4994256;28;20242;-63
2023/06/12 11:34:33;;;;;;;6.40;5.13;;;;;;;27.93;27.52;98369.53;4993399;28;20259;-63
2023/06/12 11:37:12;;;;;;;5.05;4.63;;;;;;;27.68;29.58;98376.53;4990912;28;20229;-63
2023/06/12 11:39:39;;;;;;;5.93;5.07;;;;;;;27.54;28.80;98357.53;4994468;28;20260;-64
2023/06/12 11:42:07;;;;;;;5.78;5.18;;;;;;;27.63;29.30;98362.31;4993905;28;20457;-65
2023/06/12 11:44:33;;;;;;;9.38;4.97;;;;;;;27.68;28.91;98370.34;4994191;28;20281;-61